METAR Data
IDs: Format: Raw Decoded Include TAF

Data at: 2218 UTC 10 May 2021

KHDN 102156Z AUTO 16011KT 10SM FEW022 SCT035 OVC090 04/02 A3001 RMK AO2 PK WND 23026/2116 WSHFT 2123 RAB18E51 SLP157 P0001 T00390022
KHDN 102143Z AUTO 18012KT 10SM -RA FEW017 BKN034 OVC090 03/02 A3002 RMK AO2 PK WND 23026/2116 WSHFT 2123 RAB18 P0001
KHDN 102056Z AUTO 22024G28KT 10SM SCT049 OVC065 05/01 A3000 RMK AO2 PK WND 23028/2054 LTG DSNT NE SLP152 T00500006 53000
KHDN 101956Z AUTO 21010KT 10SM BKN045 OVC065 07/M01 A2999 RMK AO2 SLP136 T00721006
KHDN 101856Z AUTO 21008KT 10SM SCT047 BKN070 OVC120 08/M01 A2999 RMK AO2 SLP134 T00781011
KHDN 101756Z AUTO 26007KT 10SM FEW041 SCT065 09/M03 A3000 RMK AO2 SLP132 T00891033 10089 20022 58009
KHDN 101656Z AUTO 00000KT 10SM OVC080 07/M02 A3002 RMK AO2 SLP141 T00721022
KHDN 101556Z AUTO 21005KT 10SM FEW035 OVC044 06/M03 A3003 RMK AO2 SLP147 T00611033
KHDN 101456Z AUTO 00000KT 10SM SCT095 05/M03 A3003 RMK AO2 SLP146 T00501028 50003
KHDN 101356Z AUTO 35003KT 10SM OVC046 03/M03 A3004 RMK AO2 SLP149 T00331033
KHDN 101256Z AUTO 00000KT 10SM OVC046 03/M04 A3003 RMK AO2 SLP146 T00331039
KHDN 101156Z AUTO 26003KT 10SM BKN055 OVC120 03/M04 A3002 RMK AO2 SLP143 T00281044 10056 20011 50003
KHDN 101056Z AUTO 16003KT 10SM SCT065 BKN090 OVC100 03/M05 A3003 RMK AO2 SLP143 T00281050
KHDN 100956Z AUTO VRB03KT 10SM OVC095 03/M05 A3002 RMK AO2 SLP138 T00281050
KHDN 100856Z AUTO 21005KT 10SM OVC100 01/M06 A3001 RMK AO2 SLP138 T00111056 58002 FZRANO
KHDN 100756Z AUTO 13006KT 10SM BKN100 03/M06 A3001 RMK AO2 SLP135 T00331061
KHDN 100656Z AUTO 14007KT 10SM FEW120 04/M04 A3002 RMK AO2 SLP139 T00441039
KHDN 100556Z AUTO 11010KT 10SM BKN100 06/M06 A3001 RMK AO2 SLP137 T00561056 10106 20050 401221017 58001
KHDN 100456Z AUTO 08007KT 10SM BKN100 06/M07 A3002 RMK AO2 SLP143 T00611067
KHDN 100356Z AUTO 10009KT 10SM CLR 06/M07 A3002 RMK AO2 SLP145 T00611067
KHDN 100256Z AUTO 23009KT 10SM OVC100 08/M09 A3002 RMK AO2 SLP142 T00831089 51005
KHDN 100156Z AUTO 21005KT 10SM OVC080 09/M08 A3002 RMK AO2 SLP149 T00941083
KHDN 100056Z AUTO 23009KT 10SM OVC080 10/M09 A3001 RMK AO2 SLP149 T01001089
KHDN 092356Z AUTO 27014G21KT 10SM FEW060 OVC090 11/M11 A3000 RMK AO2 SLP143 T01061106 10122 20083 53001
KHDN 092256Z AUTO 28007G17KT 10SM FEW090 12/M11 A2999 RMK AO2 SLP136 T01171106
KHDN 092156Z AUTO 27008G15KT 10SM SCT100 12/M12 A2999 RMK AO2 SLP133 T01171117
KHDN 092056Z AUTO 29014G19KT 10SM CLR 12/M12 A3000 RMK AO2 SLP137 T01171122 56019
KHDN 091956Z AUTO 29012G18KT 10SM CLR 11/M11 A3002 RMK AO2 SLP142 T01111111
KHDN 091856Z AUTO 30010KT 10SM FEW110 10/M11 A3004 RMK AO2 SLP151 T01001106
KHDN 091756Z AUTO VRB06KT 10SM CLR 08/M11 A3006 RMK AO2 SLP163 T00831111 10083 21017 58013
KHDN 091656Z AUTO 27004KT 10SM CLR 07/M12 A3008 RMK AO2 SLP170 T00671117
KHDN 091556Z AUTO 00000KT 10SM FEW120 06/M11 A3010 RMK AO2 SLP175 T00561106
KHDN 091456Z AUTO 00000KT 10SM CLR 04/M09 A3011 RMK AO2 SLP174 T00441089 50002
KHDN 091356Z AUTO 02004KT 10SM CLR 00/M08 A3012 RMK AO2 SLP182 T00001083 FZRANO
KHDN 091256Z AUTO 00000KT 10SM CLR M02/M07 A3011 RMK AO2 SLP175 T10171072 FZRANO
KHDN 091156Z AUTO 00000KT 10SM CLR M01/M09 A3010 RMK AO2 SLP168 T10061089 10028 21011 51005 FZRANO
KHDN 091056Z AUTO 00000KT 10SM CLR M01/M08 A3010 RMK AO2 SLP167 T10061078 FZRANO